Station: EHBK - 02/03/2024 16:55Z (il y a 6 minutes)
EHBK 021655Z AUTO 15011KT 9999 NSC 12/04 Q0998 NOSIG
Vent du 150º - 11 kt
Visibilité > 10 km
Pas de nuages significatifs
Température: +12ºC - Point de rosée: +04ºC - QNH: 998 hPa
Pas de changement significatif prévu dans les 2 heures qui suivent l'observation